Time;durP1;ratioP1;P1;durP2;ratioP2;P2;SDS_P1;SDS_P2;PMS_P1;PMS_P2;Temp;Humidity;BMP_temperature;BMP_pressure;BME280_temperature;BME280_humidity;BME280_pressure;Samples;Min_cycle;Max_cycle;Signal;HPM_P1;HPM_P2
2021/08/03 00:02:00;;;;;;;3.72;3.40;;;;;;;12.15;84.25;101549.03;5061283;28;20340;-72
2021/08/03 00:04:25;;;;;;;7.03;3.55;;;;;;;12.22;83.80;101537.34;5039217;28;20041;-72
2021/08/03 00:06:56;;;;;;;5.72;4.03;;;;;;;12.25;83.61;101544.28;5023385;28;20100;-72
2021/08/03 00:09:21;;;;;;;10.20;3.78;;;;;;;12.31;83.57;101537.94;5051507;28;20105;-71
2021/08/03 00:11:47;;;;;;;4.65;3.50;;;;;;;12.29;83.76;101530.97;5021753;28;20119;-72
2021/08/03 00:14:12;;;;;;;5.00;3.55;;;;;;;12.32;84.07;101542.31;5041749;28;20346;-72
2021/08/03 00:16:40;;;;;;;4.35;4.00;;;;;;;12.31;84.28;101536.16;5029977;28;20036;-72
2021/08/03 00:19:05;;;;;;;7.18;4.03;;;;;;;12.26;83.91;101525.84;5047813;28;20037;-72
2021/08/03 00:21:32;;;;;;;12.20;4.22;;;;;;;12.27;83.93;101531.94;5038972;28;20048;-72
2021/08/03 00:23:57;;;;;;;8.75;4.20;;;;;;;12.26;84.92;101524.97;5058739;28;20052;-72
2021/08/03 00:26:22;;;;;;;5.03;3.53;;;;;;;12.30;84.31;101529.22;5042660;28;20080;-72
2021/08/03 00:28:51;;;;;;;7.18;3.88;;;;;;;12.28;84.35;101524.03;5053926;28;20036;-72
2021/08/03 00:31:18;;;;;;;5.53;4.00;;;;;;;12.24;83.98;101522.44;5053338;28;20075;-72
2021/08/03 00:33:45;;;;;;;7.25;3.92;;;;;;;12.37;83.18;101528.09;5039174;28;20220;-72
2021/08/03 00:36:10;;;;;;;4.72;4.00;;;;;;;12.31;83.13;101522.19;5039284;28;20097;-72
2021/08/03 00:38:37;;;;;;;7.97;5.03;;;;;;;12.17;84.12;101528.81;5041315;28;20105;-72
2021/08/03 00:41:03;;;;;;;10.20;4.20;;;;;;;12.10;83.97;101524.69;5047189;28;20329;-72
2021/08/03 00:43:28;;;;;;;7.07;4.63;;;;;;;11.98;84.02;101525.13;5023043;28;20040;-72
2021/08/03 00:45:54;;;;;;;9.15;4.82;;;;;;;12.05;84.71;101522.22;5059240;28;20296;-72
2021/08/03 00:48:19;;;;;;;4.78;4.28;;;;;;;11.97;84.09;101523.41;5058915;28;20256;-73
2021/08/03 00:50:44;;;;;;;11.02;4.22;;;;;;;11.97;84.38;101523.41;5047160;28;20029;-72
2021/08/03 00:53:10;;;;;;;4.70;4.30;;;;;;;12.00;84.23;101518.91;5042392;28;20042;-72
2021/08/03 00:55:36;;;;;;;7.55;4.40;;;;;;;12.04;83.53;101515.28;5038204;28;20119;-72
2021/08/03 00:58:02;;;;;;;9.00;4.32;;;;;;;12.10;83.00;101514.19;5046204;28;20336;-72
2021/08/03 01:03:49;;;;;;;6.60;4.57;;;;;;;11.93;83.57;101513.94;5047734;28;20031;-72
2021/08/03 01:06:29;;;;;;;5.10;4.55;;;;;;;11.92;83.45;101514.88;5061732;28;20056;-72
2021/08/03 01:09:04;;;;;;;7.22;4.55;;;;;;;11.97;83.89;101511.16;5040773;28;20064;-72
2021/08/03 01:11:33;;;;;;;7.53;4.45;;;;;;;12.05;82.95;101498.59;5022527;28;20064;-72
2021/08/03 01:14:18;;;;;;;8.48;4.93;;;;;;;12.05;82.98;101495.13;5039742;28;20057;-72
2021/08/03 01:17:13;;;;;;;7.43;3.60;;;;;;;12.14;81.95;101501.81;5038928;28;20083;-72
2021/08/03 01:19:46;;;;;;;4.65;4.25;;;;;;;12.15;81.30;101501.75;5039128;28;20141;-72
2021/08/03 01:22:49;;;;;;;6.70;4.68;;;;;;;12.06;82.69;101496.81;5038344;28;20273;-72
2021/08/03 01:25:39;;;;;;;8.30;4.68;;;;;;;12.08;82.04;101492.41;5041013;28;20244;-72
2021/08/03 01:28:11;;;;;;;9.73;4.38;;;;;;;12.09;81.91;101489.69;5038764;28;20029;-72
2021/08/03 01:30:36;;;;;;;5.95;3.83;;;;;;;12.24;81.07;101490.03;5051490;28;20037;-72
2021/08/03 01:33:01;;;;;;;5.13;4.15;;;;;;;12.29;80.05;101488.09;5058505;28;20035;-72
2021/08/03 01:35:27;;;;;;;10.13;3.63;;;;;;;12.22;79.27;101491.88;5021317;28;20138;-72
2021/08/03 01:37:53;;;;;;;7.95;3.88;;;;;;;12.28;78.95;101494.28;5021930;28;20025;-72
2021/08/03 01:40:18;;;;;;;6.00;4.13;;;;;;;12.03;81.94;101495.19;5037694;28;20033;-72
2021/08/03 01:42:44;;;;;;;7.75;4.05;;;;;;;11.80;83.13;101495.94;5039224;28;20244;-72
2021/08/03 01:45:10;;;;;;;6.32;4.75;;;;;;;11.66;84.87;101498.19;5029673;28;20029;-72
2021/08/03 01:47:36;;;;;;;7.72;5.25;;;;;;;11.70;83.95;101497.22;5042097;28;20257;-72
2021/08/03 01:50:02;;;;;;;6.13;5.10;;;;;;;11.89;82.84;101502.66;5042278;28;20132;-72
2021/08/03 01:52:28;;;;;;;6.90;4.20;;;;;;;11.90;82.00;101507.88;5026020;28;20316;-72
2021/08/03 01:54:54;;;;;;;4.82;4.32;;;;;;;11.88;82.74;101503.59;5046858;28;20033;-72
2021/08/03 01:57:19;;;;;;;8.95;4.30;;;;;;;11.77;83.89;101506.59;5025286;28;20029;-72
2021/08/03 01:59:45;;;;;;;8.82;4.60;;;;;;;11.60;84.65;101501.06;5028030;28;20079;-72
2021/08/03 02:02:10;;;;;;;10.98;5.10;;;;;;;11.52;85.06;101496.06;5045355;28;20035;-72
2021/08/03 02:04:36;;;;;;;7.25;4.28;;;;;;;11.57;84.47;101496.78;5041996;28;20033;-72
2021/08/03 02:07:01;;;;;;;4.80;4.40;;;;;;;11.55;84.74;101509.09;5044121;28;20037;-72
2021/08/03 02:09:27;;;;;;;4.93;4.50;;;;;;;11.48;84.81;101500.56;5041564;28;20037;-72
2021/08/03 02:11:52;;;;;;;7.97;4.82;;;;;;;11.61;84.71;101497.53;5057948;28;20252;-72
2021/08/03 02:14:20;;;;;;;7.10;4.97;;;;;;;11.79;84.02;101502.13;5061411;28;20328;-72
2021/08/03 02:16:46;;;;;;;4.32;3.92;;;;;;;11.72;84.10;101501.47;5060511;28;20056;-72
2021/08/03 02:19:11;;;;;;;9.63;4.43;;;;;;;11.65;84.09;101492.09;5060811;28;20029;-72
2021/08/03 02:21:36;;;;;;;6.35;4.20;;;;;;;11.65;84.12;101492.09;5050260;28;20139;-72
2021/08/03 02:24:02;;;;;;;6.97;4.50;;;;;;;11.64;83.98;101490.41;5039204;28;20048;-72
2021/08/03 02:26:27;;;;;;;4.30;3.90;;;;;;;11.54;83.83;101489.00;5043339;28;20033;-72
2021/08/03 02:28:53;;;;;;;5.90;4.43;;;;;;;11.49;83.89;101490.91;5041811;28;20101;-72
2021/08/03 02:31:22;;;;;;;5.78;4.28;;;;;;;11.73;83.17;101494.47;5049624;28;20083;-72
2021/08/03 02:33:59;;;;;;;5.80;4.25;;;;;;;11.64;83.95;101497.41;5061643;28;20044;-72
2021/08/03 02:36:27;;;;;;;7.30;4.00;;;;;;;11.48;84.69;101486.59;5057591;28;20040;-72
2021/08/03 02:38:56;;;;;;;5.43;4.00;;;;;;;11.50;84.85;101503.16;5045138;28;20020;-72
2021/08/03 02:41:21;;;;;;;5.53;4.30;;;;;;;11.53;84.42;101496.03;5040867;28;20083;-72
2021/08/03 02:43:47;;;;;;;4.57;4.05;;;;;;;11.62;84.24;101483.47;5058496;28;20033;-72
2021/08/03 02:46:15;;;;;;;8.13;5.10;;;;;;;11.63;84.75;101482.59;5047078;28;20024;-71
2021/08/03 02:48:40;;;;;;;7.70;4.07;;;;;;;11.75;84.49;101486.53;5061435;28;20037;-71
2021/08/03 02:51:07;;;;;;;5.50;4.00;;;;;;;11.72;83.46;101493.59;5057448;28;20260;-72
2021/08/03 02:53:54;;;;;;;4.55;3.72;;;;;;;11.67;83.40;101490.28;5024198;28;20029;-72
2021/08/03 02:56:20;;;;;;;8.27;4.30;;;;;;;11.70;83.29;101495.44;5032128;28;20044;-72
2021/08/03 02:58:51;;;;;;;6.65;4.00;;;;;;;11.73;82.68;101486.59;5024730;28;20096;-72
2021/08/03 03:01:17;;;;;;;6.35;3.83;;;;;;;11.71;82.69;101491.91;5044182;28;20033;-72
2021/08/03 03:03:48;;;;;;;5.53;4.18;;;;;;;11.66;83.18;101491.22;5044392;28;20040;-72
2021/08/03 03:06:14;;;;;;;4.43;3.80;;;;;;;11.59;83.43;101492.34;5026309;28;20079;-72
2021/08/03 03:08:42;;;;;;;7.05;3.72;;;;;;;11.31;84.11;101490.66;5044357;28;20032;-72
2021/08/03 03:11:07;;;;;;;6.28;3.90;;;;;;;11.33;84.15;101491.47;5043453;28;20259;-72
2021/08/03 03:13:44;;;;;;;5.22;4.47;;;;;;;11.29;84.94;101492.44;5048809;28;20083;-72
2021/08/03 03:16:10;;;;;;;7.28;4.45;;;;;;;11.21;84.82;101481.38;5053595;28;20041;-72
2021/08/03 03:18:36;;;;;;;7.82;4.22;;;;;;;11.22;85.27;101488.31;5040573;28;20025;-72
2021/08/03 03:21:02;;;;;;;6.22;4.60;;;;;;;11.21;85.50;101491.84;5024095;28;20056;-72
2021/08/03 03:23:27;;;;;;;4.45;4.15;;;;;;;11.11;85.56;101493.94;5059214;28;20379;-72
2021/08/03 03:25:53;;;;;;;5.18;4.70;;;;;;;11.04;85.17;101492.41;5040493;28;20037;-72
2021/08/03 03:28:24;;;;;;;5.88;4.70;;;;;;;11.09;85.46;101489.63;5059463;28;20342;-72
2021/08/03 03:30:50;;;;;;;14.25;5.00;;;;;;;11.00;85.00;101488.16;5044162;28;20041;-72
2021/08/03 03:33:15;;;;;;;5.53;4.40;;;;;;;11.12;84.79;101482.53;5043851;28;20036;-72
2021/08/03 03:35:41;;;;;;;4.40;4.00;;;;;;;11.18;84.00;101481.47;5032859;28;20096;-72
2021/08/03 03:38:06;;;;;;;7.03;4.68;;;;;;;11.19;84.89;101477.06;5023551;28;20189;-72
2021/08/03 03:40:32;;;;;;;7.22;4.95;;;;;;;11.14;86.12;101477.22;5023614;28;20025;-72
2021/08/03 03:42:57;;;;;;;5.97;4.28;;;;;;;11.24;84.55;101477.78;5023517;28;20064;-72
2021/08/03 03:45:23;;;;;;;8.70;4.53;;;;;;;11.29;84.26;101479.31;5059060;28;20029;-72
2021/08/03 03:48:02;;;;;;;5.20;4.57;;;;;;;11.25;84.13;101477.72;5049640;28;20040;-72
2021/08/03 03:50:34;;;;;;;4.97;4.53;;;;;;;11.26;83.88;101474.22;5022729;28;20033;-72
2021/08/03 03:53:16;;;;;;;7.85;4.40;;;;;;;11.30;83.55;101477.59;5015088;28;20269;-72
2021/08/03 03:55:47;;;;;;;7.47;4.50;;;;;;;11.28;83.73;101474.16;5028600;28;20036;-72
2021/08/03 03:58:12;;;;;;;10.77;4.75;;;;;;;11.21;84.58;101472.66;5052512;28;20087;-72
2021/08/03 04:00:37;;;;;;;10.35;4.53;;;;;;;11.26;83.88;101471.59;5060017;28;20033;-72
2021/08/03 04:03:04;;;;;;;5.97;4.47;;;;;;;11.23;83.77;101473.44;5049821;28;20316;-72
2021/08/03 04:05:29;;;;;;;9.95;4.30;;;;;;;11.21;84.57;101470.88;5029458;28;20376;-72
2021/08/03 04:07:55;;;;;;;7.30;3.95;;;;;;;11.01;84.97;101468.06;5039264;28;20029;-72
2021/08/03 04:10:30;;;;;;;5.60;4.28;;;;;;;11.00;84.82;101469.81;5039199;28;20335;-73
2021/08/03 04:12:56;;;;;;;11.07;4.80;;;;;;;11.01;85.05;101474.16;5023459;28;20075;-72
2021/08/03 04:15:22;;;;;;;5.65;4.20;;;;;;;11.06;84.31;101466.13;5045250;28;20060;-72
2021/08/03 04:17:47;;;;;;;5.35;4.95;;;;;;;11.24;83.86;101462.91;5053363;28;20347;-72
2021/08/03 04:20:13;;;;;;;5.47;4.78;;;;;;;11.22;83.79;101462.09;5040328;28;20139;-72
2021/08/03 04:22:38;;;;;;;6.60;4.85;;;;;;;11.27;83.56;101469.81;5043917;28;20096;-72
2021/08/03 04:25:04;;;;;;;10.45;4.80;;;;;;;11.21;83.65;101475.28;5056757;28;20316;-72
2021/08/03 04:27:31;;;;;;;5.30;4.13;;;;;;;11.23;83.38;101473.44;5042393;28;20225;-72
2021/08/03 04:29:56;;;;;;;6.57;4.72;;;;;;;11.02;84.87;101475.84;5042750;28;20241;-72
2021/08/03 04:32:21;;;;;;;7.55;5.32;;;;;;;10.92;85.87;101469.22;5059037;28;20041;-72
2021/08/03 04:34:47;;;;;;;10.68;5.22;;;;;;;11.28;84.62;101474.16;5039419;28;20045;-72
2021/08/03 04:37:12;;;;;;;6.68;5.35;;;;;;;11.26;84.28;101474.22;5058083;28;20347;-72
2021/08/03 04:39:38;;;;;;;6.53;4.55;;;;;;;11.09;84.67;101466.88;5041925;28;20046;-72
2021/08/03 04:42:03;;;;;;;6.07;4.40;;;;;;;11.34;83.70;101466.94;5039018;28;20029;-72
2021/08/03 04:44:29;;;;;;;9.20;5.03;;;;;;;12.01;80.78;101465.50;5056491;28;20300;-72
2021/08/03 04:46:54;;;;;;;8.13;5.35;;;;;;;12.33;78.84;101458.19;5054041;28;20455;-72
2021/08/03 04:49:20;;;;;;;9.02;5.03;;;;;;;12.37;78.54;101462.41;5024592;28;20037;-72
2021/08/03 04:51:45;;;;;;;8.23;5.05;;;;;;;12.55;77.87;101460.84;5036855;28;20037;-72
2021/08/03 04:54:10;;;;;;;11.25;5.03;;;;;;;12.47;78.84;101461.13;5051513;28;20052;-72
2021/08/03 04:56:36;;;;;;;7.60;5.25;;;;;;;12.89;76.41;101458.66;5043372;28;20348;-72
2021/08/03 04:59:01;;;;;;;5.60;4.93;;;;;;;12.92;75.98;101462.00;5049724;28;20072;-72
2021/08/03 05:01:27;;;;;;;8.73;5.72;;;;;;;13.10;75.50;101455.16;5039719;28;20236;-72
2021/08/03 05:03:52;;;;;;;9.77;5.75;;;;;;;13.56;73.43;101457.63;5036314;28;20045;-72
2021/08/03 05:06:18;;;;;;;11.85;5.75;;;;;;;14.80;68.83;101453.72;5028497;28;20116;-72
2021/08/03 05:08:43;;;;;;;9.43;6.07;;;;;;;16.44;63.71;101454.91;5022795;28;20269;-72
2021/08/03 05:11:08;;;;;;;9.30;5.32;;;;;;;15.41;65.83;101455.09;5058011;28;20028;-72
2021/08/03 05:13:34;;;;;;;8.20;5.68;;;;;;;15.68;65.39;101460.75;5050467;28;20071;-72
2021/08/03 05:16:00;;;;;;;6.13;5.28;;;;;;;16.17;64.02;101452.03;5044307;28;20037;-70
2021/08/03 05:18:26;;;;;;;11.73;5.70;;;;;;;16.38;63.56;101457.06;5040210;28;20049;-70
2021/08/03 05:20:51;;;;;;;11.68;4.78;;;;;;;15.97;64.45;101468.09;5038025;28;20217;-70
2021/08/03 05:23:16;;;;;;;9.45;4.97;;;;;;;15.79;64.19;101465.50;5038672;28;20075;-70
2021/08/03 05:25:42;;;;;;;13.30;5.80;;;;;;;16.99;61.13;101456.28;5052805;28;20116;-70
2021/08/03 05:28:08;;;;;;;20.40;5.38;;;;;;;16.02;62.47;101450.19;5026305;28;20112;-70
2021/08/03 05:30:34;;;;;;;7.20;4.15;;;;;;;15.61;65.13;101456.72;5050153;28;20033;-70
2021/08/03 05:32:59;;;;;;;10.18;5.10;;;;;;;14.89;66.68;101450.63;5050992;28;20439;-70
2021/08/03 05:35:25;;;;;;;10.55;4.80;;;;;;;14.98;66.66;101447.53;5068992;28;20091;-71
2021/08/03 05:37:50;;;;;;;7.30;4.70;;;;;;;15.34;66.02;101451.06;5053232;28;20070;-70
2021/08/03 05:40:15;;;;;;;8.40;4.72;;;;;;;15.06;65.77;101455.09;5057186;28;20383;-70
2021/08/03 05:42:41;;;;;;;8.63;4.80;;;;;;;15.27;65.11;101455.78;5059344;28;20033;-70
2021/08/03 05:45:07;;;;;;;4.93;4.10;;;;;;;15.18;65.20;101450.13;5058956;28;20040;-71
2021/08/03 05:47:33;;;;;;;5.82;4.07;;;;;;;16.28;61.80;101444.38;5050358;28;20045;-71
2021/08/03 05:49:58;;;;;;;5.97;4.20;;;;;;;18.01;56.22;101442.28;5036589;28;20053;-71
2021/08/03 05:52:23;;;;;;;7.30;3.95;;;;;;;18.77;54.78;101441.81;5056594;28;20078;-71
2021/08/03 05:54:49;;;;;;;4.90;3.75;;;;;;;19.02;53.94;101449.97;5039955;28;20045;-71
2021/08/03 05:57:14;;;;;;;8.50;4.00;;;;;;;19.46;53.63;101438.16;5038254;28;20080;-71
2021/08/03 05:59:40;;;;;;;10.20;3.97;;;;;;;20.10;51.18;101444.31;5038752;28;20375;-71
2021/08/03 06:02:05;;;;;;;8.32;4.03;;;;;;;18.93;53.59;101441.66;5041869;28;20029;-71
2021/08/03 06:04:31;;;;;;;4.78;3.05;;;;;;;20.50;49.65;101440.56;5034741;28;20075;-72
2021/08/03 06:06:56;;;;;;;4.18;3.08;;;;;;;20.34;50.18;101454.16;5038623;28;20031;-72
2021/08/03 06:09:22;;;;;;;3.92;2.60;;;;;;;21.10;49.29;101438.81;5053227;28;20028;-72
2021/08/03 06:11:49;;;;;;;5.82;3.08;;;;;;;20.13;50.18;101437.91;5029219;28;20215;-72
2021/08/03 06:14:36;;;;;;;2.90;2.65;;;;;;;20.56;49.21;101444.63;5038606;28;20233;-72
2021/08/03 06:17:04;;;;;;;4.10;2.95;;;;;;;20.59;50.11;101444.38;5058177;28;20021;-72
2021/08/03 06:19:29;;;;;;;4.38;2.60;;;;;;;21.18;47.66;101438.25;5056743;28;20336;-72
2021/08/03 06:21:57;;;;;;;3.40;2.22;;;;;;;20.21;47.80;101456.84;5040278;28;20082;-70
2021/08/03 06:24:23;;;;;;;4.65;2.10;;;;;;;20.46;49.95;101447.91;5039938;28;20066;-70
2021/08/03 06:26:49;;;;;;;4.80;2.30;;;;;;;19.84;50.23;101448.81;5035557;28;20028;-70
2021/08/03 06:29:14;;;;;;;2.83;2.17;;;;;;;20.13;49.80;101454.72;5031473;28;20297;-70
2021/08/03 06:31:40;;;;;;;4.07;1.85;;;;;;;18.85;51.06;101451.13;5047451;28;20024;-70
2021/08/03 06:34:05;;;;;;;2.85;1.50;;;;;;;18.24;52.72;101446.13;5046968;28;20068;-70
2021/08/03 06:36:31;;;;;;;2.63;1.55;;;;;;;18.83;52.28;101443.25;5041336;28;20037;-70
2021/08/03 06:38:56;;;;;;;3.08;1.52;;;;;;;19.30;51.18;101443.66;5048287;28;20380;-70
2021/08/03 06:41:32;;;;;;;3.13;1.45;;;;;;;20.11;48.42;101443.34;5045295;28;20025;-70
2021/08/03 06:44:03;;;;;;;2.63;1.33;;;;;;;18.85;49.80;101444.00;5054822;28;20035;-70
2021/08/03 06:46:30;;;;;;;3.60;1.17;;;;;;;18.63;52.28;101443.66;5052894;28;20048;-70
2021/08/03 06:48:57;;;;;;;6.00;1.50;;;;;;;17.68;54.62;101448.66;5024480;28;20151;-70
2021/08/03 06:51:23;;;;;;;3.97;1.20;;;;;;;18.73;52.44;101450.06;5039489;28;20107;-70
2021/08/03 06:53:49;;;;;;;2.33;1.00;;;;;;;18.58;54.06;101447.47;5036312;28;20379;-70
2021/08/03 06:56:22;;;;;;;1.52;1.10;;;;;;;18.85;53.97;101451.13;5051951;28;20029;-70
2021/08/03 06:58:57;;;;;;;1.50;1.00;;;;;;;17.91;55.70;101451.75;5041082;28;20044;-70
2021/08/03 07:01:29;;;;;;;1.55;1.15;;;;;;;17.96;54.95;101447.00;5036838;28;20032;-70
2021/08/03 07:03:55;;;;;;;5.28;1.40;;;;;;;17.99;55.31;101437.06;5060867;28;20029;-70
2021/08/03 07:06:21;;;;;;;4.00;1.73;;;;;;;17.79;55.54;101438.28;5049695;28;20206;-70
2021/08/03 07:08:46;;;;;;;3.47;1.65;;;;;;;16.96;57.29;101437.09;5047320;28;20045;-70
2021/08/03 07:11:12;;;;;;;5.03;1.52;;;;;;;17.79;56.37;101443.56;5036205;28;20293;-70
2021/08/03 07:13:37;;;;;;;2.05;1.30;;;;;;;18.66;53.38;101444.31;5044810;28;20112;-70
2021/08/03 07:16:03;;;;;;;4.22;1.10;;;;;;;18.51;54.47;101435.53;5048773;28;20033;-70
2021/08/03 07:18:28;;;;;;;3.58;1.50;;;;;;;19.91;50.78;101439.44;5048899;28;20059;-71
2021/08/03 07:20:54;;;;;;;3.20;1.63;;;;;;;20.97;49.23;101443.38;5047743;28;20235;-71
2021/08/03 07:23:22;;;;;;;2.72;1.50;;;;;;;20.17;51.12;101441.22;5030831;28;20082;-71
2021/08/03 07:25:48;;;;;;;5.13;1.40;;;;;;;20.94;49.19;101446.25;5052292;28;20151;-70
2021/08/03 07:28:14;;;;;;;2.03;1.10;;;;;;;21.73;47.34;101441.16;5047919;28;20097;-71
2021/08/03 07:30:42;;;;;;;4.72;1.50;;;;;;;20.76;48.34;101438.69;5043812;28;20044;-71
2021/08/03 07:33:10;;;;;;;2.60;1.40;;;;;;;20.82;51.06;101434.72;5034105;28;20017;-71
2021/08/03 07:35:38;;;;;;;1.88;1.20;;;;;;;21.00;49.27;101432.50;5051823;28;20053;-71
2021/08/03 07:38:05;;;;;;;4.57;1.60;;;;;;;20.46;50.99;101437.28;5041147;28;20094;-71
2021/08/03 07:40:30;;;;;;;4.30;1.65;;;;;;;19.99;52.05;101438.88;5062948;28;20131;-72
2021/08/03 07:42:55;;;;;;;4.25;1.50;;;;;;;19.82;52.84;101442.75;5066623;28;20049;-72
2021/08/03 07:45:21;;;;;;;3.17;1.20;;;;;;;20.30;51.87;101439.34;5076248;28;20336;-71
2021/08/03 07:47:46;;;;;;;3.00;1.02;;;;;;;20.29;51.29;101437.66;5074891;28;20048;-71
2021/08/03 07:50:13;;;;;;;5.07;1.30;;;;;;;20.97;50.18;101436.22;5038066;28;20086;-71
2021/08/03 07:52:38;;;;;;;5.25;1.10;;;;;;;19.50;52.59;101439.63;5077745;28;20040;-71
2021/08/03 07:55:04;;;;;;;6.93;1.25;;;;;;;19.34;53.25;101435.38;5060122;28;20393;-71
2021/08/03 07:57:29;;;;;;;3.08;1.05;;;;;;;20.90;49.42;101432.31;5059675;28;20055;-71
2021/08/03 07:59:55;;;;;;;3.45;1.33;;;;;;;20.78;50.18;101436.75;5062503;28;20055;-71
2021/08/03 08:02:21;;;;;;;2.83;1.15;;;;;;;20.94;50.73;101430.28;5052748;28;20028;-71
2021/08/03 08:04:47;;;;;;;3.13;1.10;;;;;;;21.18;49.66;101431.09;5080594;28;20335;-71
2021/08/03 08:07:36;;;;;;;3.45;1.20;;;;;;;21.17;49.44;101432.03;5074242;28;20028;-72
2021/08/03 08:10:02;;;;;;;5.50;1.15;;;;;;;20.64;50.35;101434.28;5042657;28;20075;-71
2021/08/03 08:12:28;;;;;;;5.50;1.17;;;;;;;20.54;49.99;101434.06;5080753;28;20032;-71
2021/08/03 08:14:53;;;;;;;1.13;0.90;;;;;;;22.77;45.43;101426.56;5061303;28;20129;-71
2021/08/03 08:17:19;;;;;;;2.47;1.17;;;;;;;21.49;47.88;101427.94;5080673;28;20024;-71
2021/08/03 08:19:44;;;;;;;2.20;1.02;;;;;;;20.08;50.59;101437.38;5073753;28;20090;-71
2021/08/03 08:22:10;;;;;;;4.93;1.30;;;;;;;20.33;50.35;101433.81;5069013;28;20078;-71
2021/08/03 08:24:36;;;;;;;3.85;1.20;;;;;;;20.53;51.16;101437.69;5076110;28;20028;-71
2021/08/03 08:27:02;;;;;;;3.95;1.20;;;;;;;19.52;52.49;101438.59;5023878;28;20044;-70
2021/08/03 08:29:27;;;;;;;4.70;1.40;;;;;;;20.38;51.22;101434.34;5055607;28;20261;-70
2021/08/03 08:31:53;;;;;;;4.18;1.25;;;;;;;20.60;50.98;101432.78;5075871;28;20347;-70
2021/08/03 08:34:19;;;;;;;2.60;1.15;;;;;;;19.72;52.42;101441.69;5057081;28;20044;-70
2021/08/03 08:36:44;;;;;;;3.30;1.40;;;;;;;19.79;51.82;101434.13;5078535;28;20092;-70
2021/08/03 08:39:10;;;;;;;6.70;1.27;;;;;;;18.56;55.99;101433.44;5078400;28;20048;-70
2021/08/03 08:41:35;;;;;;;2.80;1.55;;;;;;;18.85;55.84;101433.38;5078893;28;20064;-70
2021/08/03 08:44:02;;;;;;;2.45;1.55;;;;;;;18.69;56.14;101428.19;5060173;28;20079;-70
2021/08/03 08:46:32;;;;;;;4.03;1.42;;;;;;;18.44;55.92;101436.03;5056598;28;20143;-70
2021/08/03 08:48:57;;;;;;;2.85;1.15;;;;;;;17.98;56.60;101432.72;5072211;28;20078;-70
2021/08/03 08:51:22;;;;;;;4.43;1.35;;;;;;;17.92;57.04;101434.88;5033467;28;20044;-69
2021/08/03 08:53:49;;;;;;;2.08;1.55;;;;;;;18.35;56.29;101429.53;5057658;28;20041;-69
2021/08/03 08:56:14;;;;;;;5.43;1.63;;;;;;;18.53;56.23;101428.34;5058204;28;20123;-69
2021/08/03 08:58:43;;;;;;;2.65;1.17;;;;;;;18.59;56.07;101425.31;5076964;28;20036;-69
2021/08/03 09:01:08;;;;;;;;;;;;;;;18.49;56.78;101424.19;5060161;28;20043;-69
2021/08/03 09:03:33;;;;;;;2.97;1.27;;;;;;;18.26;56.20;101422.16;5075556;28;19998;-70
2021/08/03 09:06:04;;;;;;;2.53;1.00;;;;;;;18.41;55.75;101418.53;5077006;28;20091;-70
2021/08/03 09:08:39;;;;;;;3.53;1.27;;;;;;;18.75;54.90;101426.94;5072809;28;20030;-70
2021/08/03 09:11:06;;;;;;;5.10;1.70;;;;;;;17.90;56.86;101426.19;5076330;28;20177;-70
2021/08/03 09:13:34;;;;;;;10.90;1.35;;;;;;;18.01;56.65;101429.03;5077976;28;20064;-70
2021/08/03 09:16:00;;;;;;;1.10;1.00;;;;;;;19.31;54.40;101416.16;5043472;28;20102;-69
2021/08/03 09:18:29;;;;;;;2.30;1.10;;;;;;;18.37;55.94;101422.31;5059758;28;20304;-69
2021/08/03 09:20:55;;;;;;;3.13;1.02;;;;;;;19.41;53.07;101425.22;5078076;28;20263;-69
2021/08/03 09:23:44;;;;;;;1.92;0.98;;;;;;;18.57;54.17;101421.91;5043691;28;20020;-69
2021/08/03 09:26:10;;;;;;;4.38;1.35;;;;;;;19.15;53.62;101424.31;5060728;28;20051;-69
2021/08/03 09:28:54;;;;;;;2.20;1.27;;;;;;;19.51;52.88;101426.25;5076413;28;20032;-70
2021/08/03 09:31:20;;;;;;;4.18;1.63;;;;;;;19.94;50.95;101422.44;5075549;28;20468;-71
2021/08/03 09:33:48;;;;;;;2.90;1.20;;;;;;;21.85;46.73;101413.53;5078628;28;20037;-73
2021/08/03 09:36:14;;;;;;;3.55;1.40;;;;;;;19.46;51.43;101428.38;5059152;28;20024;-71
2021/08/03 09:38:39;;;;;;;2.33;1.60;;;;;;;20.60;49.77;101411.50;5077883;28;20307;-69
2021/08/03 09:41:08;;;;;;;7.47;1.90;;;;;;;21.75;46.30;101418.72;5056849;28;20028;-69
2021/08/03 09:43:34;;;;;;;3.58;1.60;;;;;;;23.19;43.29;101414.13;5061264;28;20033;-70
2021/08/03 09:46:00;;;;;;;3.85;1.55;;;;;;;22.77;43.70;101422.06;5041499;28;20350;-70
2021/08/03 09:48:26;;;;;;;4.65;1.67;;;;;;;20.74;48.27;101416.66;5062398;28;20024;-70
2021/08/03 09:51:08;;;;;;;2.97;1.70;;;;;;;20.71;48.09;101414.22;5044546;28;20062;-70
2021/08/03 09:53:40;;;;;;;1.50;1.15;;;;;;;21.17;48.46;101413.41;5063941;28;20032;-70
2021/08/03 09:56:06;;;;;;;4.57;1.60;;;;;;;23.81;41.04;101416.00;5079166;28;20036;-70
2021/08/03 09:58:32;;;;;;;3.25;2.10;;;;;;;22.17;44.17;101418.09;5061468;28;20323;-70
2021/08/03 10:01:17;;;;;;;3.78;1.90;;;;;;;22.58;43.71;101412.06;5079427;28;20035;-70
2021/08/03 10:03:43;;;;;;;3.42;1.77;;;;;;;23.37;42.92;101418.88;5060453;28;20116;-70
2021/08/03 10:06:08;;;;;;;4.53;2.35;;;;;;;23.63;40.85;101423.78;5047305;28;20215;-70
2021/08/03 10:08:34;;;;;;;2.83;2.05;;;;;;;24.93;39.27;101408.59;5045769;28;20021;-71
2021/08/03 10:10:59;;;;;;;4.65;2.25;;;;;;;26.19;35.83;101419.94;5083018;28;20322;-70
2021/08/03 10:13:24;;;;;;;2.72;2.10;;;;;;;23.76;39.84;101424.41;5064237;28;20054;-70
2021/08/03 10:15:50;;;;;;;3.70;2.72;;;;;;;24.17;40.58;101411.06;5083207;28;20044;-70
2021/08/03 10:18:15;;;;;;;2.88;2.00;;;;;;;25.89;36.57;101410.31;5082473;28;20028;-71
2021/08/03 10:20:42;;;;;;;2.78;2.30;;;;;;;23.00;42.08;101411.28;5090343;28;20208;-70
2021/08/03 10:23:07;;;;;;;3.45;1.85;;;;;;;20.24;49.10;101413.22;5082702;28;20036;-70
2021/08/03 10:25:38;;;;;;;4.05;1.95;;;;;;;21.27;46.72;101413.56;5053769;28;20031;-70
2021/08/03 10:28:22;;;;;;;4.95;2.30;;;;;;;21.80;46.05;101416.53;5079697;28;20036;-70
2021/08/03 10:30:47;;;;;;;6.20;2.30;;;;;;;20.81;47.54;101417.91;5064823;28;20025;-70
2021/08/03 10:33:41;;;;;;;5.88;1.90;;;;;;;20.14;49.38;101413.88;5081893;28;20096;-70
2021/08/03 10:36:07;;;;;;;4.85;2.40;;;;;;;20.87;46.26;101409.44;5082333;28;20028;-69
2021/08/03 10:38:32;;;;;;;3.65;2.22;;;;;;;20.41;46.72;101418.16;5081709;28;20062;-70
2021/08/03 10:41:16;;;;;;;6.05;2.38;;;;;;;20.22;48.07;101409.81;5064431;28;20036;-70
2021/08/03 10:43:48;;;;;;;3.15;2.40;;;;;;;20.50;46.98;101413.97;5079739;28;20036;-70
2021/08/03 10:46:13;;;;;;;2.80;2.60;;;;;;;20.22;45.81;101407.16;5080633;28;20024;-70
2021/08/03 10:48:39;;;;;;;2.78;2.10;;;;;;;20.41;47.40;101411.97;5082267;28;20238;-70
2021/08/03 10:51:13;;;;;;;3.53;2.53;;;;;;;20.14;47.57;101410.38;5082183;28;20275;-70
2021/08/03 10:54:04;;;;;;;3.50;2.40;;;;;;;19.53;50.05;101410.22;5079364;28;20278;-70
2021/08/03 10:56:49;;;;;;;4.40;2.08;;;;;;;20.09;49.93;101416.00;5060174;28;20021;-70
2021/08/03 10:59:30;;;;;;;6.03;2.50;;;;;;;19.97;47.81;101411.56;5077777;28;20342;-70
2021/08/03 11:01:56;;;;;;;4.20;1.90;;;;;;;21.55;44.86;101401.63;5078030;28;20312;-70
2021/08/03 11:04:40;;;;;;;5.20;2.10;;;;;;;22.67;42.97;101399.78;5062749;28;20020;-70
2021/08/03 11:07:27;;;;;;;4.03;2.40;;;;;;;21.47;44.75;101393.41;5081690;28;20035;-70
2021/08/03 11:10:02;;;;;;;7.78;2.70;;;;;;;21.64;42.37;101400.06;5078759;28;20329;-70
2021/08/03 11:12:44;;;;;;;4.72;2.20;;;;;;;22.31;43.35;101393.84;5047032;28;20032;-70
2021/08/03 11:15:22;;;;;;;4.60;3.03;;;;;;;21.03;45.62;101397.66;5061245;28;20095;-70
2021/08/03 11:18:01;;;;;;;6.00;2.28;;;;;;;20.62;46.60;101389.13;5081776;28;20059;-69
2021/08/03 11:20:45;;;;;;;4.68;2.40;;;;;;;22.49;45.00;101390.66;5081098;28;20024;-69
2021/08/03 11:23:13;;;;;;;5.90;2.95;;;;;;;20.90;45.24;101387.06;5080323;28;20036;-69
2021/08/03 11:25:39;;;;;;;4.10;2.60;;;;;;;21.41;44.22;101393.81;5064398;28;20027;-70
2021/08/03 11:28:18;;;;;;;4.88;2.78;;;;;;;22.03;43.98;101395.22;5027568;28;20456;-70
2021/08/03 11:30:45;;;;;;;2.08;1.38;;;;;;;22.37;44.59;101384.47;5064230;28;20052;-69
2021/08/03 11:33:11;;;;;;;2.17;1.60;;;;;;;22.33;44.87;101383.88;5044651;28;20398;-69